sensor_id;sensor_type;location;lat;lon;timestamp;temperature;humidity
24384;DHT22;12504;52.870;8.798;2023-11-19T00:00:54;6.90;99.90
24384;DHT22;12504;52.870;8.798;2023-11-19T00:03:20;7.00;99.90
24384;DHT22;12504;52.870;8.798;2023-11-19T00:05:45;7.20;99.90
24384;DHT22;12504;52.870;8.798;2023-11-19T00:08:11;7.20;99.90
24384;DHT22;12504;52.870;8.798;2023-11-19T00:10:37;7.10;99.90
24384;DHT22;12504;52.870;8.798;2023-11-19T00:13:02;7.30;99.90
24384;DHT22;12504;52.870;8.798;2023-11-19T00:15:28;7.40;99.90
24384;DHT22;12504;52.870;8.798;2023-11-19T00:17:54;7.30;99.90
24384;DHT22;12504;52.870;8.798;2023-11-19T00:20:20;7.50;99.90
24384;DHT22;12504;52.870;8.798;2023-11-19T00:22:47;7.30;99.90
24384;DHT22;12504;52.870;8.798;2023-11-19T00:25:17;7.40;99.90
24384;DHT22;12504;52.870;8.798;2023-11-19T00:27:42;7.50;99.90
24384;DHT22;12504;52.870;8.798;2023-11-19T00:30:10;7.70;99.90
24384;DHT22;12504;52.870;8.798;2023-11-19T00:32:36;7.70;99.90
24384;DHT22;12504;52.870;8.798;2023-11-19T00:35:04;7.60;99.90
24384;DHT22;12504;52.870;8.798;2023-11-19T00:37:30;7.70;99.90
24384;DHT22;12504;52.870;8.798;2023-11-19T00:39:55;7.80;99.90
24384;DHT22;12504;52.870;8.798;2023-11-19T00:42:24;7.90;99.90
24384;DHT22;12504;52.870;8.798;2023-11-19T00:44:52;8.00;99.90
24384;DHT22;12504;52.870;8.798;2023-11-19T00:47:18;7.80;99.90
24384;DHT22;12504;52.870;8.798;2023-11-19T00:49:46;7.90;99.90
24384;DHT22;12504;52.870;8.798;2023-11-19T00:52:14;8.00;99.90
24384;DHT22;12504;52.870;8.798;2023-11-19T00:54:40;7.90;99.90
24384;DHT22;12504;52.870;8.798;2023-11-19T00:57:06;7.90;99.90
24384;DHT22;12504;52.870;8.798;2023-11-19T00:59:31;8.00;99.90
24384;DHT22;12504;52.870;8.798;2023-11-19T01:01:58;8.10;99.90
24384;DHT22;12504;52.870;8.798;2023-11-19T01:04:29;8.00;99.90
24384;DHT22;12504;52.870;8.798;2023-11-19T01:06:55;8.20;99.90
24384;DHT22;12504;52.870;8.798;2023-11-19T01:09:20;8.30;99.90
24384;DHT22;12504;52.870;8.798;2023-11-19T01:11:46;8.30;99.90
24384;DHT22;12504;52.870;8.798;2023-11-19T01:14:11;8.40;99.90
24384;DHT22;12504;52.870;8.798;2023-11-19T01:16:37;8.50;99.90
24384;DHT22;12504;52.870;8.798;2023-11-19T01:19:02;8.50;99.90
24384;DHT22;12504;52.870;8.798;2023-11-19T01:21:30;8.60;99.90
24384;DHT22;12504;52.870;8.798;2023-11-19T01:23:57;8.60;99.90
24384;DHT22;12504;52.870;8.798;2023-11-19T01:26:24;8.60;99.90
24384;DHT22;12504;52.870;8.798;2023-11-19T01:28:49;8.70;99.90
24384;DHT22;12504;52.870;8.798;2023-11-19T01:31:18;8.70;99.90
24384;DHT22;12504;52.870;8.798;2023-11-19T01:33:43;8.80;99.90
24384;DHT22;12504;52.870;8.798;2023-11-19T01:36:12;8.90;99.90
24384;DHT22;12504;52.870;8.798;2023-11-19T01:38:38;8.80;99.90
24384;DHT22;12504;52.870;8.798;2023-11-19T01:41:04;8.90;99.90
24384;DHT22;12504;52.870;8.798;2023-11-19T01:43:37;9.10;99.90
24384;DHT22;12504;52.870;8.798;2023-11-19T01:46:05;9.20;99.90
24384;DHT22;12504;52.870;8.798;2023-11-19T01:48:32;9.30;99.90
24384;DHT22;12504;52.870;8.798;2023-11-19T01:51:00;9.20;99.90
24384;DHT22;12504;52.870;8.798;2023-11-19T01:53:27;9.30;99.90
24384;DHT22;12504;52.870;8.798;2023-11-19T01:55:53;9.40;99.90
24384;DHT22;12504;52.870;8.798;2023-11-19T01:58:19;9.40;99.90
24384;DHT22;12504;52.870;8.798;2023-11-19T02:00:45;9.50;99.90
24384;DHT22;12504;52.870;8.798;2023-11-19T02:03:12;9.50;99.90
24384;DHT22;12504;52.870;8.798;2023-11-19T02:05:39;9.50;99.90
24384;DHT22;12504;52.870;8.798;2023-11-19T02:08:05;9.50;99.90
24384;DHT22;12504;52.870;8.798;2023-11-19T02:10:31;9.50;99.90
24384;DHT22;12504;52.870;8.798;2023-11-19T02:12:58;9.60;99.90
24384;DHT22;12504;52.870;8.798;2023-11-19T02:15:24;9.60;99.90
24384;DHT22;12504;52.870;8.798;2023-11-19T02:17:50;9.60;99.90
24384;DHT22;12504;52.870;8.798;2023-11-19T02:20:17;9.80;99.90
24384;DHT22;12504;52.870;8.798;2023-11-19T02:22:48;9.90;99.90
24384;DHT22;12504;52.870;8.798;2023-11-19T02:25:31;9.90;99.90
24384;DHT22;12504;52.870;8.798;2023-11-19T02:28:02;9.80;99.90
24384;DHT22;12504;52.870;8.798;2023-11-19T02:30:28;9.80;99.90
24384;DHT22;12504;52.870;8.798;2023-11-19T02:32:57;10.00;99.90
24384;DHT22;12504;52.870;8.798;2023-11-19T02:35:27;10.10;99.90
24384;DHT22;12504;52.870;8.798;2023-11-19T02:37:54;10.10;99.90
24384;DHT22;12504;52.870;8.798;2023-11-19T02:40:20;9.90;99.90
24384;DHT22;12504;52.870;8.798;2023-11-19T02:42:45;9.90;99.90
24384;DHT22;12504;52.870;8.798;2023-11-19T02:45:11;10.30;99.90
24384;DHT22;12504;52.870;8.798;2023-11-19T02:47:43;10.20;99.90
24384;DHT22;12504;52.870;8.798;2023-11-19T02:50:12;10.30;99.90
24384;DHT22;12504;52.870;8.798;2023-11-19T02:52:43;10.10;99.90
24384;DHT22;12504;52.870;8.798;2023-11-19T02:55:13;10.10;99.90
24384;DHT22;12504;52.870;8.798;2023-11-19T02:57:39;10.30;99.90
24384;DHT22;12504;52.870;8.798;2023-11-19T03:00:15;10.40;99.90
24384;DHT22;12504;52.870;8.798;2023-11-19T03:02:41;10.30;99.90
24384;DHT22;12504;52.870;8.798;2023-11-19T03:05:12;10.40;99.90
24384;DHT22;12504;52.870;8.798;2023-11-19T03:07:38;10.60;99.90
24384;DHT22;12504;52.870;8.798;2023-11-19T03:10:03;10.50;99.90
24384;DHT22;12504;52.870;8.798;2023-11-19T03:12:31;10.70;99.90
24384;DHT22;12504;52.870;8.798;2023-11-19T03:14:57;10.50;99.90
24384;DHT22;12504;52.870;8.798;2023-11-19T03:17:23;10.70;99.90
24384;DHT22;12504;52.870;8.798;2023-11-19T03:19:49;10.70;99.90
24384;DHT22;12504;52.870;8.798;2023-11-19T03:22:15;10.70;99.90
24384;DHT22;12504;52.870;8.798;2023-11-19T03:24:40;10.80;99.90
24384;DHT22;12504;52.870;8.798;2023-11-19T03:27:06;10.60;99.90
24384;DHT22;12504;52.870;8.798;2023-11-19T03:29:32;10.80;99.90
24384;DHT22;12504;52.870;8.798;2023-11-19T03:31:57;10.70;99.90
24384;DHT22;12504;52.870;8.798;2023-11-19T03:34:23;10.70;99.90
24384;DHT22;12504;52.870;8.798;2023-11-19T03:36:49;10.90;99.90
24384;DHT22;12504;52.870;8.798;2023-11-19T03:39:15;11.00;99.90
24384;DHT22;12504;52.870;8.798;2023-11-19T03:41:40;11.00;99.90
24384;DHT22;12504;52.870;8.798;2023-11-19T03:44:06;10.80;99.90
24384;DHT22;12504;52.870;8.798;2023-11-19T03:46:32;10.90;99.90
24384;DHT22;12504;52.870;8.798;2023-11-19T03:48:57;10.80;99.90
24384;DHT22;12504;52.870;8.798;2023-11-19T03:51:23;10.80;99.90
24384;DHT22;12504;52.870;8.798;2023-11-19T03:53:48;11.00;99.90
24384;DHT22;12504;52.870;8.798;2023-11-19T03:56:14;10.90;99.90
24384;DHT22;12504;52.870;8.798;2023-11-19T03:58:40;11.00;99.90
24384;DHT22;12504;52.870;8.798;2023-11-19T04:01:06;11.10;99.90
24384;DHT22;12504;52.870;8.798;2023-11-19T04:03:36;10.90;99.90
24384;DHT22;12504;52.870;8.798;2023-11-19T04:06:03;11.10;99.90
24384;DHT22;12504;52.870;8.798;2023-11-19T04:08:29;11.10;99.90
24384;DHT22;12504;52.870;8.798;2023-11-19T04:10:55;11.00;99.90
24384;DHT22;12504;52.870;8.798;2023-11-19T04:13:20;11.10;99.90
24384;DHT22;12504;52.870;8.798;2023-11-19T04:15:46;11.00;99.90
24384;DHT22;12504;52.870;8.798;2023-11-19T04:18:12;11.10;99.90
24384;DHT22;12504;52.870;8.798;2023-11-19T04:20:37;11.00;99.90
24384;DHT22;12504;52.870;8.798;2023-11-19T04:23:03;11.10;99.90
24384;DHT22;12504;52.870;8.798;2023-11-19T04:25:28;11.10;99.90
24384;DHT22;12504;52.870;8.798;2023-11-19T04:27:54;11.30;99.90
24384;DHT22;12504;52.870;8.798;2023-11-19T04:30:20;11.20;99.90
24384;DHT22;12504;52.870;8.798;2023-11-19T04:32:45;11.20;99.90
24384;DHT22;12504;52.870;8.798;2023-11-19T04:35:11;11.20;99.90
24384;DHT22;12504;52.870;8.798;2023-11-19T04:37:37;11.40;99.90
24384;DHT22;12504;52.870;8.798;2023-11-19T04:40:03;11.30;99.90
24384;DHT22;12504;52.870;8.798;2023-11-19T04:42:29;11.30;99.90
24384;DHT22;12504;52.870;8.798;2023-11-19T04:44:55;11.30;99.90
24384;DHT22;12504;52.870;8.798;2023-11-19T04:47:21;11.30;99.90
24384;DHT22;12504;52.870;8.798;2023-11-19T04:49:46;11.40;99.90
24384;DHT22;12504;52.870;8.798;2023-11-19T04:52:12;11.30;99.90
24384;DHT22;12504;52.870;8.798;2023-11-19T04:54:41;11.20;99.90
24384;DHT22;12504;52.870;8.798;2023-11-19T04:57:08;11.30;99.90
24384;DHT22;12504;52.870;8.798;2023-11-19T04:59:36;11.30;99.90
24384;DHT22;12504;52.870;8.798;2023-11-19T05:02:02;11.30;99.90
24384;DHT22;12504;52.870;8.798;2023-11-19T05:04:29;11.40;99.90
24384;DHT22;12504;52.870;8.798;2023-11-19T05:06:55;11.30;99.90
24384;DHT22;12504;52.870;8.798;2023-11-19T05:09:21;11.40;99.90
24384;DHT22;12504;52.870;8.798;2023-11-19T05:11:46;11.30;99.90
24384;DHT22;12504;52.870;8.798;2023-11-19T05:14:12;11.40;99.90
24384;DHT22;12504;52.870;8.798;2023-11-19T05:16:41;11.40;99.90
24384;DHT22;12504;52.870;8.798;2023-11-19T05:19:07;11.50;99.90
24384;DHT22;12504;52.870;8.798;2023-11-19T05:21:32;11.50;99.90
24384;DHT22;12504;52.870;8.798;2023-11-19T05:23:58;11.40;99.90
24384;DHT22;12504;52.870;8.798;2023-11-19T05:26:24;11.50;99.90
24384;DHT22;12504;52.870;8.798;2023-11-19T05:28:50;11.50;99.90
24384;DHT22;12504;52.870;8.798;2023-11-19T05:31:17;11.50;99.90
24384;DHT22;12504;52.870;8.798;2023-11-19T05:33:43;11.50;99.90
24384;DHT22;12504;52.870;8.798;2023-11-19T05:36:10;11.30;99.90
24384;DHT22;12504;52.870;8.798;2023-11-19T05:38:36;11.30;99.90
24384;DHT22;12504;52.870;8.798;2023-11-19T05:41:02;11.30;99.90
24384;DHT22;12504;52.870;8.798;2023-11-19T05:43:28;11.30;99.90
24384;DHT22;12504;52.870;8.798;2023-11-19T05:45:54;11.30;99.90
24384;DHT22;12504;52.870;8.798;2023-11-19T05:48:19;11.30;99.90
24384;DHT22;12504;52.870;8.798;2023-11-19T05:50:45;11.30;99.90
24384;DHT22;12504;52.870;8.798;2023-11-19T05:53:12;11.20;99.90
24384;DHT22;12504;52.870;8.798;2023-11-19T05:55:40;11.30;99.90
24384;DHT22;12504;52.870;8.798;2023-11-19T05:58:12;11.30;99.90
24384;DHT22;12504;52.870;8.798;2023-11-19T06:00:41;11.30;99.90
24384;DHT22;12504;52.870;8.798;2023-11-19T06:03:10;11.30;99.90
24384;DHT22;12504;52.870;8.798;2023-11-19T06:05:35;11.20;99.90
24384;DHT22;12504;52.870;8.798;2023-11-19T06:08:01;11.20;99.90
24384;DHT22;12504;52.870;8.798;2023-11-19T06:10:27;11.30;99.90
24384;DHT22;12504;52.870;8.798;2023-11-19T06:13:00;11.30;99.90
24384;DHT22;12504;52.870;8.798;2023-11-19T06:15:28;11.30;99.90
24384;DHT22;12504;52.870;8.798;2023-11-19T06:17:56;11.30;99.90
24384;DHT22;12504;52.870;8.798;2023-11-19T06:20:25;11.30;99.90
24384;DHT22;12504;52.870;8.798;2023-11-19T06:22:53;11.30;99.90
24384;DHT22;12504;52.870;8.798;2023-11-19T06:25:18;11.30;99.90
24384;DHT22;12504;52.870;8.798;2023-11-19T06:27:44;11.30;99.90
24384;DHT22;12504;52.870;8.798;2023-11-19T06:30:10;11.40;99.90
24384;DHT22;12504;52.870;8.798;2023-11-19T06:32:37;11.30;99.90
24384;DHT22;12504;52.870;8.798;2023-11-19T06:35:03;11.30;99.90
24384;DHT22;12504;52.870;8.798;2023-11-19T06:37:30;11.30;99.90
24384;DHT22;12504;52.870;8.798;2023-11-19T06:39:56;11.30;99.90
24384;DHT22;12504;52.870;8.798;2023-11-19T06:42:21;11.30;99.90
24384;DHT22;12504;52.870;8.798;2023-11-19T06:44:47;11.20;99.90
24384;DHT22;12504;52.870;8.798;2023-11-19T06:47:13;11.20;99.90
24384;DHT22;12504;52.870;8.798;2023-11-19T06:49:38;11.10;99.90
24384;DHT22;12504;52.870;8.798;2023-11-19T06:52:04;11.20;99.90
24384;DHT22;12504;52.870;8.798;2023-11-19T06:54:30;11.10;99.90
24384;DHT22;12504;52.870;8.798;2023-11-19T06:56:56;11.20;99.90
24384;DHT22;12504;52.870;8.798;2023-11-19T06:59:23;11.20;99.90
24384;DHT22;12504;52.870;8.798;2023-11-19T07:01:49;11.10;99.90
24384;DHT22;12504;52.870;8.798;2023-11-19T07:04:14;11.10;99.90
24384;DHT22;12504;52.870;8.798;2023-11-19T07:06:40;11.10;99.90
24384;DHT22;12504;52.870;8.798;2023-11-19T07:09:07;11.10;99.90
24384;DHT22;12504;52.870;8.798;2023-11-19T07:11:39;11.10;99.90
24384;DHT22;12504;52.870;8.798;2023-11-19T07:14:05;11.00;99.90
24384;DHT22;12504;52.870;8.798;2023-11-19T07:16:34;11.10;99.90
24384;DHT22;12504;52.870;8.798;2023-11-19T07:19:03;11.00;99.90
24384;DHT22;12504;52.870;8.798;2023-11-19T07:21:28;11.00;99.90
24384;DHT22;12504;52.870;8.798;2023-11-19T07:23:55;11.00;99.90
24384;DHT22;12504;52.870;8.798;2023-11-19T07:26:20;11.00;99.90
24384;DHT22;12504;52.870;8.798;2023-11-19T07:28:47;11.10;99.90
24384;DHT22;12504;52.870;8.798;2023-11-19T07:31:13;11.10;99.90
24384;DHT22;12504;52.870;8.798;2023-11-19T07:33:39;11.10;99.90
24384;DHT22;12504;52.870;8.798;2023-11-19T07:36:08;11.10;99.90
24384;DHT22;12504;52.870;8.798;2023-11-19T07:38:34;11.10;99.90
24384;DHT22;12504;52.870;8.798;2023-11-19T07:41:00;11.10;99.90
24384;DHT22;12504;52.870;8.798;2023-11-19T07:43:25;11.10;99.90
24384;DHT22;12504;52.870;8.798;2023-11-19T07:45:51;11.10;99.90
24384;DHT22;12504;52.870;8.798;2023-11-19T07:48:17;11.10;99.90
24384;DHT22;12504;52.870;8.798;2023-11-19T07:50:48;11.20;99.90
24384;DHT22;12504;52.870;8.798;2023-11-19T07:53:16;11.20;99.90
24384;DHT22;12504;52.870;8.798;2023-11-19T07:55:42;11.10;99.90
24384;DHT22;12504;52.870;8.798;2023-11-19T07:58:10;11.10;99.90
24384;DHT22;12504;52.870;8.798;2023-11-19T08:00:36;11.00;99.90
24384;DHT22;12504;52.870;8.798;2023-11-19T08:03:03;11.00;99.90
24384;DHT22;12504;52.870;8.798;2023-11-19T08:05:30;11.00;99.90
24384;DHT22;12504;52.870;8.798;2023-11-19T08:07:56;11.00;99.90
24384;DHT22;12504;52.870;8.798;2023-11-19T08:10:22;11.00;99.90
24384;DHT22;12504;52.870;8.798;2023-11-19T08:12:48;11.10;99.90
24384;DHT22;12504;52.870;8.798;2023-11-19T08:15:14;11.00;99.90
24384;DHT22;12504;52.870;8.798;2023-11-19T08:17:41;11.00;99.90
24384;DHT22;12504;52.870;8.798;2023-11-19T08:20:07;11.00;99.90
24384;DHT22;12504;52.870;8.798;2023-11-19T08:22:36;10.70;99.90
24384;DHT22;12504;52.870;8.798;2023-11-19T08:25:06;10.60;99.90
24384;DHT22;12504;52.870;8.798;2023-11-19T08:27:32;10.50;99.90
24384;DHT22;12504;52.870;8.798;2023-11-19T08:29:58;10.30;99.90
24384;DHT22;12504;52.870;8.798;2023-11-19T08:32:27;10.40;99.90
24384;DHT22;12504;52.870;8.798;2023-11-19T08:34:53;10.40;99.90
24384;DHT22;12504;52.870;8.798;2023-11-19T08:37:19;10.40;99.90
24384;DHT22;12504;52.870;8.798;2023-11-19T08:39:47;10.40;99.90
24384;DHT22;12504;52.870;8.798;2023-11-19T08:42:13;10.50;99.90
24384;DHT22;12504;52.870;8.798;2023-11-19T08:44:41;10.50;99.90
24384;DHT22;12504;52.870;8.798;2023-11-19T08:47:09;10.60;99.90
24384;DHT22;12504;52.870;8.798;2023-11-19T08:49:36;10.50;99.90
24384;DHT22;12504;52.870;8.798;2023-11-19T08:52:01;10.60;99.90
24384;DHT22;12504;52.870;8.798;2023-11-19T08:54:27;10.60;99.90
24384;DHT22;12504;52.870;8.798;2023-11-19T08:56:53;10.70;99.90
24384;DHT22;12504;52.870;8.798;2023-11-19T08:59:21;10.70;99.90
24384;DHT22;12504;52.870;8.798;2023-11-19T09:01:47;10.80;99.90
24384;DHT22;12504;52.870;8.798;2023-11-19T09:04:12;10.80;99.90
24384;DHT22;12504;52.870;8.798;2023-11-19T09:06:39;10.70;99.90
24384;DHT22;12504;52.870;8.798;2023-11-19T09:09:05;10.80;99.90
24384;DHT22;12504;52.870;8.798;2023-11-19T09:11:31;10.80;99.90
24384;DHT22;12504;52.870;8.798;2023-11-19T09:13:57;10.80;99.90
24384;DHT22;12504;52.870;8.798;2023-11-19T09:16:23;10.70;99.90
24384;DHT22;12504;52.870;8.798;2023-11-19T09:18:49;10.70;99.90
24384;DHT22;12504;52.870;8.798;2023-11-19T09:21:15;10.70;99.90
24384;DHT22;12504;52.870;8.798;2023-11-19T09:23:41;10.70;99.90
24384;DHT22;12504;52.870;8.798;2023-11-19T09:26:08;10.70;99.90
24384;DHT22;12504;52.870;8.798;2023-11-19T09:28:34;10.80;99.90
24384;DHT22;12504;52.870;8.798;2023-11-19T09:31:00;10.80;99.90
24384;DHT22;12504;52.870;8.798;2023-11-19T09:33:25;10.80;99.90
24384;DHT22;12504;52.870;8.798;2023-11-19T09:35:52;10.70;99.90
24384;DHT22;12504;52.870;8.798;2023-11-19T09:38:17;10.80;99.90
24384;DHT22;12504;52.870;8.798;2023-11-19T09:40:43;10.80;99.90
24384;DHT22;12504;52.870;8.798;2023-11-19T09:43:09;10.80;99.90
24384;DHT22;12504;52.870;8.798;2023-11-19T09:46:04;10.90;99.90
24384;DHT22;12504;52.870;8.798;2023-11-19T09:48:33;10.80;99.90
24384;DHT22;12504;52.870;8.798;2023-11-19T09:51:01;10.90;99.90
24384;DHT22;12504;52.870;8.798;2023-11-19T09:53:30;10.90;99.90
24384;DHT22;12504;52.870;8.798;2023-11-19T09:55:58;10.90;99.90
24384;DHT22;12504;52.870;8.798;2023-11-19T09:58:25;11.00;99.90
24384;DHT22;12504;52.870;8.798;2023-11-19T10:00:51;10.90;99.90
24384;DHT22;12504;52.870;8.798;2023-11-19T10:03:17;10.90;99.90
24384;DHT22;12504;52.870;8.798;2023-11-19T10:05:43;10.90;99.90
24384;DHT22;12504;52.870;8.798;2023-11-19T10:08:09;10.80;99.90
24384;DHT22;12504;52.870;8.798;2023-11-19T10:10:36;10.80;99.90
24384;DHT22;12504;52.870;8.798;2023-11-19T10:13:03;10.80;99.90
24384;DHT22;12504;52.870;8.798;2023-11-19T10:15:32;10.80;99.90
24384;DHT22;12504;52.870;8.798;2023-11-19T10:18:00;10.80;99.90
24384;DHT22;12504;52.870;8.798;2023-11-19T10:20:26;10.80;99.90
24384;DHT22;12504;52.870;8.798;2023-11-19T10:22:55;10.80;99.90
24384;DHT22;12504;52.870;8.798;2023-11-19T10:25:22;10.90;99.90
24384;DHT22;12504;52.870;8.798;2023-11-19T10:27:49;10.90;99.90
24384;DHT22;12504;52.870;8.798;2023-11-19T10:30:29;10.90;99.90
24384;DHT22;12504;52.870;8.798;2023-11-19T10:35:35;10.90;99.90
24384;DHT22;12504;52.870;8.798;2023-11-19T10:38:14;10.90;99.90
24384;DHT22;12504;52.870;8.798;2023-11-19T10:40:42;10.90;99.90
24384;DHT22;12504;52.870;8.798;2023-11-19T10:43:08;10.80;99.90
24384;DHT22;12504;52.870;8.798;2023-11-19T10:45:37;10.90;99.90
24384;DHT22;12504;52.870;8.798;2023-11-19T10:48:04;10.80;99.90
24384;DHT22;12504;52.870;8.798;2023-11-19T10:50:35;10.90;99.90
24384;DHT22;12504;52.870;8.798;2023-11-19T10:53:02;10.90;99.90
24384;DHT22;12504;52.870;8.798;2023-11-19T10:55:33;10.90;99.90
24384;DHT22;12504;52.870;8.798;2023-11-19T10:58:07;10.90;99.90
24384;DHT22;12504;52.870;8.798;2023-11-19T11:00:45;10.90;99.90
24384;DHT22;12504;52.870;8.798;2023-11-19T11:03:21;10.90;99.90
24384;DHT22;12504;52.870;8.798;2023-11-19T11:05:51;10.90;99.90
24384;DHT22;12504;52.870;8.798;2023-11-19T11:08:18;10.80;99.90
24384;DHT22;12504;52.870;8.798;2023-11-19T11:10:57;10.80;99.90
24384;DHT22;12504;52.870;8.798;2023-11-19T11:13:26;10.80;99.90
24384;DHT22;12504;52.870;8.798;2023-11-19T11:15:57;10.90;99.90
24384;DHT22;12504;52.870;8.798;2023-11-19T11:18:26;10.70;99.90
24384;DHT22;12504;52.870;8.798;2023-11-19T11:21:05;10.80;99.90
24384;DHT22;12504;52.870;8.798;2023-11-19T11:24:03;10.80;99.90
24384;DHT22;12504;52.870;8.798;2023-11-19T11:26:57;10.80;99.90
24384;DHT22;12504;52.870;8.798;2023-11-19T11:37:46;11.00;99.90
24384;DHT22;12504;52.870;8.798;2023-11-19T11:40:17;10.90;99.90
24384;DHT22;12504;52.870;8.798;2023-11-19T11:42:44;11.00;99.90
24384;DHT22;12504;52.870;8.798;2023-11-19T11:45:14;11.00;99.90
24384;DHT22;12504;52.870;8.798;2023-11-19T11:50:12;11.10;99.90
24384;DHT22;12504;52.870;8.798;2023-11-19T11:55:34;11.00;99.90
24384;DHT22;12504;52.870;8.798;2023-11-19T11:58:06;11.10;99.90
24384;DHT22;12504;52.870;8.798;2023-11-19T12:00:39;11.00;99.90
24384;DHT22;12504;52.870;8.798;2023-11-19T12:03:06;11.10;99.90
24384;DHT22;12504;52.870;8.798;2023-11-19T12:05:32;11.10;99.90
24384;DHT22;12504;52.870;8.798;2023-11-19T12:08:04;11.10;99.90
24384;DHT22;12504;52.870;8.798;2023-11-19T12:10:37;11.10;99.90
24384;DHT22;12504;52.870;8.798;2023-11-19T12:13:05;11.10;99.90
24384;DHT22;12504;52.870;8.798;2023-11-19T12:18:29;11.10;99.90
24384;DHT22;12504;52.870;8.798;2023-11-19T12:20:55;11.00;99.90
24384;DHT22;12504;52.870;8.798;2023-11-19T12:23:24;11.00;99.90
24384;DHT22;12504;52.870;8.798;2023-11-19T12:25:50;11.10;99.90
24384;DHT22;12504;52.870;8.798;2023-11-19T12:28:16;11.00;99.90
24384;DHT22;12504;52.870;8.798;2023-11-19T12:30:43;11.00;99.90
24384;DHT22;12504;52.870;8.798;2023-11-19T12:33:13;10.90;99.90
24384;DHT22;12504;52.870;8.798;2023-11-19T12:35:42;10.90;99.90
24384;DHT22;12504;52.870;8.798;2023-11-19T12:38:18;10.90;99.90
24384;DHT22;12504;52.870;8.798;2023-11-19T12:40:45;10.90;99.90
24384;DHT22;12504;52.870;8.798;2023-11-19T12:43:11;10.90;99.90
24384;DHT22;12504;52.870;8.798;2023-11-19T12:45:46;10.90;99.90
24384;DHT22;12504;52.870;8.798;2023-11-19T12:48:12;10.90;99.90
24384;DHT22;12504;52.870;8.798;2023-11-19T12:50:56;10.80;99.90
24384;DHT22;12504;52.870;8.798;2023-11-19T12:53:24;10.80;99.90
24384;DHT22;12504;52.870;8.798;2023-11-19T12:55:50;10.80;99.90
24384;DHT22;12504;52.870;8.798;2023-11-19T12:58:33;10.80;99.90
24384;DHT22;12504;52.870;8.798;2023-11-19T13:01:08;10.80;99.90
24384;DHT22;12504;52.870;8.798;2023-11-19T13:03:37;10.90;99.90
24384;DHT22;12504;52.870;8.798;2023-11-19T13:06:08;10.90;99.90
24384;DHT22;12504;52.870;8.798;2023-11-19T13:08:46;11.00;99.90
24384;DHT22;12504;52.870;8.798;2023-11-19T13:11:14;11.00;99.90
24384;DHT22;12504;52.870;8.798;2023-11-19T13:14:02;11.20;99.90
24384;DHT22;12504;52.870;8.798;2023-11-19T13:16:35;11.30;99.90
24384;DHT22;12504;52.870;8.798;2023-11-19T13:19:01;11.40;99.90
24384;DHT22;12504;52.870;8.798;2023-11-19T13:21:27;11.40;99.90
24384;DHT22;12504;52.870;8.798;2023-11-19T13:23:52;11.50;99.90
24384;DHT22;12504;52.870;8.798;2023-11-19T13:26:18;11.50;99.90
24384;DHT22;12504;52.870;8.798;2023-11-19T13:28:44;11.50;99.90
24384;DHT22;12504;52.870;8.798;2023-11-19T13:31:09;11.40;99.90
24384;DHT22;12504;52.870;8.798;2023-11-19T13:33:35;11.40;99.90
24384;DHT22;12504;52.870;8.798;2023-11-19T13:36:02;11.20;99.90
24384;DHT22;12504;52.870;8.798;2023-11-19T13:38:32;11.10;99.90
24384;DHT22;12504;52.870;8.798;2023-11-19T13:40:58;11.00;99.90
24384;DHT22;12504;52.870;8.798;2023-11-19T13:43:25;10.90;99.90
24384;DHT22;12504;52.870;8.798;2023-11-19T13:45:51;10.90;99.90
24384;DHT22;12504;52.870;8.798;2023-11-19T13:48:18;10.80;99.90
24384;DHT22;12504;52.870;8.798;2023-11-19T13:50:44;10.70;99.90
24384;DHT22;12504;52.870;8.798;2023-11-19T13:53:10;10.70;99.90
24384;DHT22;12504;52.870;8.798;2023-11-19T13:55:36;10.60;99.90
24384;DHT22;12504;52.870;8.798;2023-11-19T13:58:02;10.50;99.90
24384;DHT22;12504;52.870;8.798;2023-11-19T14:00:27;10.50;99.90
24384;DHT22;12504;52.870;8.798;2023-11-19T14:02:53;10.60;99.90
24384;DHT22;12504;52.870;8.798;2023-11-19T14:05:19;10.60;99.90
24384;DHT22;12504;52.870;8.798;2023-11-19T14:07:45;10.60;99.90
24384;DHT22;12504;52.870;8.798;2023-11-19T14:10:14;10.50;99.90
24384;DHT22;12504;52.870;8.798;2023-11-19T14:12:40;10.50;99.90
24384;DHT22;12504;52.870;8.798;2023-11-19T14:15:08;10.30;99.90
24384;DHT22;12504;52.870;8.798;2023-11-19T14:17:40;10.30;99.90
24384;DHT22;12504;52.870;8.798;2023-11-19T14:20:06;10.30;99.90
24384;DHT22;12504;52.870;8.798;2023-11-19T14:22:45;10.10;99.90
24384;DHT22;12504;52.870;8.798;2023-11-19T14:25:13;10.30;99.90
24384;DHT22;12504;52.870;8.798;2023-11-19T14:27:40;10.30;99.90
24384;DHT22;12504;52.870;8.798;2023-11-19T14:30:07;10.30;99.90
24384;DHT22;12504;52.870;8.798;2023-11-19T14:32:35;10.30;99.90
24384;DHT22;12504;52.870;8.798;2023-11-19T14:35:00;10.20;99.90
24384;DHT22;12504;52.870;8.798;2023-11-19T14:37:26;10.30;99.90
24384;DHT22;12504;52.870;8.798;2023-11-19T14:39:52;10.20;99.90
24384;DHT22;12504;52.870;8.798;2023-11-19T14:42:17;10.20;99.90
24384;DHT22;12504;52.870;8.798;2023-11-19T14:44:43;10.20;99.90
24384;DHT22;12504;52.870;8.798;2023-11-19T14:47:09;10.20;99.90
24384;DHT22;12504;52.870;8.798;2023-11-19T14:49:35;10.20;99.90
24384;DHT22;12504;52.870;8.798;2023-11-19T14:52:03;10.30;99.90
24384;DHT22;12504;52.870;8.798;2023-11-19T14:54:29;10.30;99.90
24384;DHT22;12504;52.870;8.798;2023-11-19T14:56:54;10.30;99.90
24384;DHT22;12504;52.870;8.798;2023-11-19T14:59:20;10.40;99.90
24384;DHT22;12504;52.870;8.798;2023-11-19T15:01:45;10.30;99.90
24384;DHT22;12504;52.870;8.798;2023-11-19T15:04:11;10.20;99.90
24384;DHT22;12504;52.870;8.798;2023-11-19T15:06:37;10.30;99.90
24384;DHT22;12504;52.870;8.798;2023-11-19T15:09:04;10.30;99.90
24384;DHT22;12504;52.870;8.798;2023-11-19T15:11:30;10.30;99.90
24384;DHT22;12504;52.870;8.798;2023-11-19T15:13:55;10.20;99.90
24384;DHT22;12504;52.870;8.798;2023-11-19T15:16:21;10.20;99.90
24384;DHT22;12504;52.870;8.798;2023-11-19T15:18:59;10.20;99.90
24384;DHT22;12504;52.870;8.798;2023-11-19T15:21:28;10.20;99.90
24384;DHT22;12504;52.870;8.798;2023-11-19T15:23:57;10.20;99.90
24384;DHT22;12504;52.870;8.798;2023-11-19T15:26:23;10.20;99.90
24384;DHT22;12504;52.870;8.798;2023-11-19T15:28:49;10.20;99.90
24384;DHT22;12504;52.870;8.798;2023-11-19T15:31:14;10.10;99.90
24384;DHT22;12504;52.870;8.798;2023-11-19T15:33:42;10.10;99.90
24384;DHT22;12504;52.870;8.798;2023-11-19T15:36:09;10.00;99.90
24384;DHT22;12504;52.870;8.798;2023-11-19T15:38:35;10.00;99.90
24384;DHT22;12504;52.870;8.798;2023-11-19T15:41:00;10.00;99.90
24384;DHT22;12504;52.870;8.798;2023-11-19T15:43:28;9.90;99.90
24384;DHT22;12504;52.870;8.798;2023-11-19T15:45:55;9.90;99.90
24384;DHT22;12504;52.870;8.798;2023-11-19T15:48:20;10.00;99.90
24384;DHT22;12504;52.870;8.798;2023-11-19T15:50:46;10.00;99.90
24384;DHT22;12504;52.870;8.798;2023-11-19T15:53:14;10.00;99.90